Terminal Aerodrome Forecast
Issued by NWS

Home | Current Version | Previous Version | Text Only | Print | Product List | Glossary On
Versions: 1 2 3 4 5 6 7 8 9 10 11 12 13 14 15 16 17 18 19 20 21 22 23 24 25 26 27 28 29 30 31 32 33 34 35 36 37 38 39 40 41 42 43 44 45 46 47 48 49 50
000
FTUS44 KFWD 301720
TAFDAL
TAF
KDAL 301720Z 3018/3118 11014G24KT P6SM SHRA VCTS OVC020CB
      TEMPO 3018/3021 3SM SHRA BR BKN012
     FM302100 11011KT 4SM SHRA BR VCTS OVC008CB
      TEMPO 3021/3101 3SM -TSRA OVC005CB
     FM310300 10006KT 4SM BR VCTS OVC005CB
     FM310700 04004KT 4SM BR OVC007
     FM310900 33006KT P6SM OVC010
     FM311600 34012KT P6SM BKN030=

USA.gov is the U.S. government's official web portal to all federal, state and local government web resources and services.